sensor_id;sensor_type;location;lat;lon;timestamp;pressure;altitude;pressure_sealevel;temperature;humidity
58686;BME280;44465;53.206;-6.106;2023-08-17T00:01:25;102083.50;;;24.49;53.39
58686;BME280;44465;53.206;-6.106;2023-08-17T00:03:50;102073.03;;;24.43;53.43
58686;BME280;44465;53.206;-6.106;2023-08-17T00:06:15;102084.53;;;24.46;53.49
58686;BME280;44465;53.206;-6.106;2023-08-17T00:08:42;102076.59;;;24.43;53.35
58686;BME280;44465;53.206;-6.106;2023-08-17T00:11:07;102078.44;;;24.43;53.19
58686;BME280;44465;53.206;-6.106;2023-08-17T00:13:33;102069.78;;;24.36;53.16
58686;BME280;44465;53.206;-6.106;2023-08-17T00:15:58;102070.66;;;24.37;53.23
58686;BME280;44465;53.206;-6.106;2023-08-17T00:18:24;102079.47;;;24.40;53.34
58686;BME280;44465;53.206;-6.106;2023-08-17T00:20:49;102078.75;;;24.37;53.24
58686;BME280;44465;53.206;-6.106;2023-08-17T00:23:15;102075.16;;;24.36;53.34
58686;BME280;44465;53.206;-6.106;2023-08-17T00:25:40;102074.22;;;24.37;53.40
58686;BME280;44465;53.206;-6.106;2023-08-17T00:28:06;102078.56;;;24.40;53.50
58686;BME280;44465;53.206;-6.106;2023-08-17T00:30:31;102070.59;;;24.38;53.16
58686;BME280;44465;53.206;-6.106;2023-08-17T00:32:57;102071.53;;;24.37;53.30
58686;BME280;44465;53.206;-6.106;2023-08-17T00:35:22;102068.69;;;24.40;53.13
58686;BME280;44465;53.206;-6.106;2023-08-17T00:37:48;102070.59;;;24.38;53.18
58686;BME280;44465;53.206;-6.106;2023-08-17T00:40:13;102071.44;;;24.39;53.29
58686;BME280;44465;53.206;-6.106;2023-08-17T00:42:39;102062.41;;;24.40;53.15
58686;BME280;44465;53.206;-6.106;2023-08-17T00:45:05;102052.91;;;24.32;53.06
58686;BME280;44465;53.206;-6.106;2023-08-17T00:47:31;102053.72;;;24.35;53.26
58686;BME280;44465;53.206;-6.106;2023-08-17T00:49:58;102062.59;;;24.37;53.01
58686;BME280;44465;53.206;-6.106;2023-08-17T00:52:23;102058.22;;;24.34;53.35
58686;BME280;44465;53.206;-6.106;2023-08-17T00:54:49;102062.03;;;24.30;53.20
58686;BME280;44465;53.206;-6.106;2023-08-17T00:57:14;102068.22;;;24.32;53.07
58686;BME280;44465;53.206;-6.106;2023-08-17T00:59:40;102049.78;;;24.23;53.11
58686;BME280;44465;53.206;-6.106;2023-08-17T01:02:06;102054.22;;;24.24;52.98
58686;BME280;44465;53.206;-6.106;2023-08-17T01:04:35;102061.94;;;24.31;53.34
58686;BME280;44465;53.206;-6.106;2023-08-17T01:07:00;102048.56;;;24.30;52.68
58686;BME280;44465;53.206;-6.106;2023-08-17T01:09:26;102057.50;;;24.30;53.10
58686;BME280;44465;53.206;-6.106;2023-08-17T01:12:11;102051.25;;;24.30;52.83
58686;BME280;44465;53.206;-6.106;2023-08-17T01:14:52;102039.03;;;24.23;52.85
58686;BME280;44465;53.206;-6.106;2023-08-17T01:17:25;102045.88;;;24.30;53.25
58686;BME280;44465;53.206;-6.106;2023-08-17T01:19:53;102039.69;;;24.28;52.92
58686;BME280;44465;53.206;-6.106;2023-08-17T01:22:21;102034.38;;;24.26;53.10
58686;BME280;44465;53.206;-6.106;2023-08-17T01:24:50;102034.31;;;24.28;52.96
58686;BME280;44465;53.206;-6.106;2023-08-17T01:27:22;102017.50;;;24.23;52.99
58686;BME280;44465;53.206;-6.106;2023-08-17T01:29:48;102026.38;;;24.25;52.90
58686;BME280;44465;53.206;-6.106;2023-08-17T01:32:37;102017.66;;;24.20;52.89
58686;BME280;44465;53.206;-6.106;2023-08-17T01:35:11;102010.81;;;24.12;52.89
58686;BME280;44465;53.206;-6.106;2023-08-17T01:37:41;102028.25;;;24.23;52.87
58686;BME280;44465;53.206;-6.106;2023-08-17T01:40:08;102018.47;;;24.22;53.11
58686;BME280;44465;53.206;-6.106;2023-08-17T01:42:35;102022.16;;;24.19;53.08
58686;BME280;44465;53.206;-6.106;2023-08-17T01:45:01;102018.53;;;24.20;52.94
58686;BME280;44465;53.206;-6.106;2023-08-17T01:47:27;102018.75;;;24.15;53.13
58686;BME280;44465;53.206;-6.106;2023-08-17T01:49:52;102017.72;;;24.18;52.88
58686;BME280;44465;53.206;-6.106;2023-08-17T01:52:19;102014.03;;;24.21;52.84
58686;BME280;44465;53.206;-6.106;2023-08-17T01:54:44;102017.66;;;24.20;52.75
58686;BME280;44465;53.206;-6.106;2023-08-17T01:57:11;102022.97;;;24.21;52.98
58686;BME280;44465;53.206;-6.106;2023-08-17T01:59:37;102026.53;;;24.22;52.84
58686;BME280;44465;53.206;-6.106;2023-08-17T02:02:02;102008.78;;;24.17;52.67
58686;BME280;44465;53.206;-6.106;2023-08-17T02:04:28;102014.19;;;24.17;53.13
58686;BME280;44465;53.206;-6.106;2023-08-17T02:06:53;102012.50;;;24.15;52.78
58686;BME280;44465;53.206;-6.106;2023-08-17T02:09:19;102001.97;;;24.10;52.81
58686;BME280;44465;53.206;-6.106;2023-08-17T02:11:44;102017.66;;;24.20;52.75
58686;BME280;44465;53.206;-6.106;2023-08-17T02:14:09;102011.56;;;24.16;52.65
58686;BME280;44465;53.206;-6.106;2023-08-17T02:16:35;102014.25;;;24.16;52.78
58686;BME280;44465;53.206;-6.106;2023-08-17T02:19:00;102012.44;;;24.16;52.87
58686;BME280;44465;53.206;-6.106;2023-08-17T02:21:26;102001.03;;;24.11;52.81
58686;BME280;44465;53.206;-6.106;2023-08-17T02:23:51;102000.38;;;24.06;52.83
58686;BME280;44465;53.206;-6.106;2023-08-17T02:26:17;102010.81;;;24.12;52.71
58686;BME280;44465;53.206;-6.106;2023-08-17T02:28:42;102012.66;;;24.12;52.92
58686;BME280;44465;53.206;-6.106;2023-08-17T02:31:08;102008.22;;;24.11;52.80
58686;BME280;44465;53.206;-6.106;2023-08-17T02:33:33;102010.09;;;24.09;53.18
58686;BME280;44465;53.206;-6.106;2023-08-17T02:35:59;102011.81;;;24.11;52.88
58686;BME280;44465;53.206;-6.106;2023-08-17T02:38:24;102008.13;;;24.12;52.63
58686;BME280;44465;53.206;-6.106;2023-08-17T02:40:50;101988.19;;;23.99;52.66
58686;BME280;44465;53.206;-6.106;2023-08-17T02:43:15;102008.22;;;24.11;52.62
58686;BME280;44465;53.206;-6.106;2023-08-17T02:45:41;102005.44;;;24.12;52.67
58686;BME280;44465;53.206;-6.106;2023-08-17T02:48:06;101985.50;;;23.99;52.74
58686;BME280;44465;53.206;-6.106;2023-08-17T02:50:32;102004.66;;;24.10;53.05
58686;BME280;44465;53.206;-6.106;2023-08-17T02:52:57;101986.13;;;24.04;52.75
58686;BME280;44465;53.206;-6.106;2023-08-17T02:55:23;101992.22;;;24.08;52.65
58686;BME280;44465;53.206;-6.106;2023-08-17T02:57:48;101989.53;;;24.08;52.90
58686;BME280;44465;53.206;-6.106;2023-08-17T03:00:14;101993.09;;;24.08;52.74
58686;BME280;44465;53.206;-6.106;2023-08-17T03:02:39;101970.44;;;23.95;53.04
58686;BME280;44465;53.206;-6.106;2023-08-17T03:05:05;101972.03;;;23.99;52.68
58686;BME280;44465;53.206;-6.106;2023-08-17T03:07:31;101978.94;;;24.05;52.73
58686;BME280;44465;53.206;-6.106;2023-08-17T03:09:57;101962.13;;;23.99;52.67
58686;BME280;44465;53.206;-6.106;2023-08-17T03:12:22;101952.41;;;23.97;52.55
58686;BME280;44465;53.206;-6.106;2023-08-17T03:14:48;101961.41;;;23.96;52.88
58686;BME280;44465;53.206;-6.106;2023-08-17T03:17:13;101955.22;;;23.94;52.69
58686;BME280;44465;53.206;-6.106;2023-08-17T03:19:39;101955.72;;;24.02;52.58
58686;BME280;44465;53.206;-6.106;2023-08-17T03:22:04;101947.97;;;23.96;52.69
58686;BME280;44465;53.206;-6.106;2023-08-17T03:24:30;101950.28;;;24.04;52.73
58686;BME280;44465;53.206;-6.106;2023-08-17T03:26:56;101944.09;;;24.01;52.42
58686;BME280;44465;53.206;-6.106;2023-08-17T03:29:24;101929.13;;;23.96;52.74
58686;BME280;44465;53.206;-6.106;2023-08-17T03:31:49;101941.50;;;24.00;52.49
58686;BME280;44465;53.206;-6.106;2023-08-17T03:34:15;101945.13;;;23.99;52.66
58686;BME280;44465;53.206;-6.106;2023-08-17T03:36:41;101939.75;;;23.99;52.60
58686;BME280;44465;53.206;-6.106;2023-08-17T03:39:06;101947.75;;;24.00;52.71
58686;BME280;44465;53.206;-6.106;2023-08-17T03:41:32;101946.88;;;24.00;52.73
58686;BME280;44465;53.206;-6.106;2023-08-17T03:43:57;101939.66;;;24.00;52.58
58686;BME280;44465;53.206;-6.106;2023-08-17T03:46:23;101939.91;;;23.96;52.62
58686;BME280;44465;53.206;-6.106;2023-08-17T03:48:49;101936.38;;;23.94;52.70
58686;BME280;44465;53.206;-6.106;2023-08-17T03:51:15;101941.66;;;23.97;52.67
58686;BME280;44465;53.206;-6.106;2023-08-17T03:53:40;101938.16;;;23.95;52.49
58686;BME280;44465;53.206;-6.106;2023-08-17T03:56:06;101927.69;;;23.89;52.43
58686;BME280;44465;53.206;-6.106;2023-08-17T03:58:32;101935.47;;;23.95;52.71
58686;BME280;44465;53.206;-6.106;2023-08-17T04:01:00;101938.16;;;23.95;52.46
58686;BME280;44465;53.206;-6.106;2023-08-17T04:03:28;101943.53;;;23.95;52.75
58686;BME280;44465;53.206;-6.106;2023-08-17T04:05:54;101937.41;;;23.91;52.53
58686;BME280;44465;53.206;-6.106;2023-08-17T04:08:19;101927.59;;;23.90;52.34
58686;BME280;44465;53.206;-6.106;2023-08-17T04:10:45;101939.91;;;23.96;52.64
58686;BME280;44465;53.206;-6.106;2023-08-17T04:13:11;101939.06;;;23.94;52.72
58686;BME280;44465;53.206;-6.106;2023-08-17T04:15:36;101935.53;;;23.93;52.41
58686;BME280;44465;53.206;-6.106;2023-08-17T04:18:02;101938.25;;;23.92;52.55
58686;BME280;44465;53.206;-6.106;2023-08-17T04:20:27;101932.03;;;23.91;52.27
58686;BME280;44465;53.206;-6.106;2023-08-17T04:22:53;101933.78;;;23.92;52.35
58686;BME280;44465;53.206;-6.106;2023-08-17T04:25:18;101935.53;;;23.93;52.47
58686;BME280;44465;53.206;-6.106;2023-08-17T04:27:44;101926.03;;;23.86;52.69
58686;BME280;44465;53.206;-6.106;2023-08-17T04:30:10;101934.63;;;23.93;52.56
58686;BME280;44465;53.206;-6.106;2023-08-17T04:32:48;101932.03;;;23.91;52.67
58686;BME280;44465;53.206;-6.106;2023-08-17T04:35:19;101926.75;;;23.90;52.33
58686;BME280;44465;53.206;-6.106;2023-08-17T04:37:45;101921.41;;;23.88;52.54
58686;BME280;44465;53.206;-6.106;2023-08-17T04:40:11;101920.69;;;23.84;52.31
58686;BME280;44465;53.206;-6.106;2023-08-17T04:42:36;101917.88;;;23.88;52.49
58686;BME280;44465;53.206;-6.106;2023-08-17T04:45:02;101917.22;;;23.82;52.37
58686;BME280;44465;53.206;-6.106;2023-08-17T04:47:28;101910.16;;;23.80;52.29
58686;BME280;44465;53.206;-6.106;2023-08-17T04:49:54;101908.50;;;23.77;52.29
58686;BME280;44465;53.206;-6.106;2023-08-17T04:52:19;101913.75;;;23.80;52.53
58686;BME280;44465;53.206;-6.106;2023-08-17T04:54:45;101914.59;;;23.81;52.33
58686;BME280;44465;53.206;-6.106;2023-08-17T04:57:10;101910.09;;;23.81;52.53
58686;BME280;44465;53.206;-6.106;2023-08-17T04:59:36;101906.53;;;23.81;52.77
58686;BME280;44465;53.206;-6.106;2023-08-17T05:02:01;101894.13;;;23.78;52.41
58686;BME280;44465;53.206;-6.106;2023-08-17T05:04:29;101884.44;;;23.74;52.50
58686;BME280;44465;53.206;-6.106;2023-08-17T05:06:55;101905.34;;;23.86;52.45
58686;BME280;44465;53.206;-6.106;2023-08-17T05:09:21;101890.41;;;23.81;52.36
58686;BME280;44465;53.206;-6.106;2023-08-17T05:11:46;101893.00;;;23.82;52.48
58686;BME280;44465;53.206;-6.106;2023-08-17T05:14:12;101897.38;;;23.85;52.42
58686;BME280;44465;53.206;-6.106;2023-08-17T05:16:37;101893.81;;;23.84;52.57
58686;BME280;44465;53.206;-6.106;2023-08-17T05:19:03;101889.31;;;23.85;52.31
58686;BME280;44465;53.206;-6.106;2023-08-17T05:21:29;101879.88;;;23.76;52.12
58686;BME280;44465;53.206;-6.106;2023-08-17T05:23:55;101883.28;;;23.80;52.56
58686;BME280;44465;53.206;-6.106;2023-08-17T05:26:21;101877.09;;;23.78;52.50
58686;BME280;44465;53.206;-6.106;2023-08-17T05:28:47;101876.25;;;23.77;52.45
58686;BME280;44465;53.206;-6.106;2023-08-17T05:31:12;101870.72;;;23.80;52.51
58686;BME280;44465;53.206;-6.106;2023-08-17T05:33:41;101859.44;;;23.72;52.57
58686;BME280;44465;53.206;-6.106;2023-08-17T05:36:07;101865.72;;;23.73;52.51
58686;BME280;44465;53.206;-6.106;2023-08-17T05:38:33;101876.38;;;23.74;52.36
58686;BME280;44465;53.206;-6.106;2023-08-17T05:40:59;101871.81;;;23.76;52.51
58686;BME280;44465;53.206;-6.106;2023-08-17T05:43:25;101869.25;;;23.73;52.65
58686;BME280;44465;53.206;-6.106;2023-08-17T05:45:51;101874.34;;;23.79;52.35
58686;BME280;44465;53.206;-6.106;2023-08-17T05:48:18;101872.59;;;23.78;52.40
58686;BME280;44465;53.206;-6.106;2023-08-17T05:50:44;101867.47;;;23.74;52.54
58686;BME280;44465;53.206;-6.106;2023-08-17T05:53:09;101879.72;;;23.79;52.48
58686;BME280;44465;53.206;-6.106;2023-08-17T05:55:35;101847.25;;;23.65;52.55
58686;BME280;44465;53.206;-6.106;2023-08-17T05:58:01;101871.88;;;23.75;52.51
58686;BME280;44465;53.206;-6.106;2023-08-17T06:00:28;101851.69;;;23.66;52.25
58686;BME280;44465;53.206;-6.106;2023-08-17T06:02:53;101870.16;;;23.74;52.34
58686;BME280;44465;53.206;-6.106;2023-08-17T06:05:23;101872.59;;;23.78;52.43
58686;BME280;44465;53.206;-6.106;2023-08-17T06:07:50;101873.78;;;23.73;52.21
58686;BME280;44465;53.206;-6.106;2023-08-17T06:10:16;101874.63;;;23.73;52.26
58686;BME280;44465;53.206;-6.106;2023-08-17T06:12:41;101872.13;;;23.70;52.50
58686;BME280;44465;53.206;-6.106;2023-08-17T06:15:07;101868.47;;;23.71;52.02
58686;BME280;44465;53.206;-6.106;2023-08-17T06:17:32;101860.56;;;23.68;52.25
58686;BME280;44465;53.206;-6.106;2023-08-17T06:19:58;101866.75;;;23.70;52.29
58686;BME280;44465;53.206;-6.106;2023-08-17T06:22:23;101864.06;;;23.70;52.45
58686;BME280;44465;53.206;-6.106;2023-08-17T06:24:49;101856.94;;;23.69;52.47
58686;BME280;44465;53.206;-6.106;2023-08-17T06:27:14;101859.69;;;23.67;52.47
58686;BME280;44465;53.206;-6.106;2023-08-17T06:29:40;101864.81;;;23.72;52.50
58686;BME280;44465;53.206;-6.106;2023-08-17T06:32:06;101842.69;;;23.67;52.40
58686;BME280;44465;53.206;-6.106;2023-08-17T06:34:31;101835.72;;;23.63;52.27
58686;BME280;44465;53.206;-6.106;2023-08-17T06:36:58;101847.75;;;23.73;52.34
58686;BME280;44465;53.206;-6.106;2023-08-17T06:39:25;101850.44;;;23.73;52.28
58686;BME280;44465;53.206;-6.106;2023-08-17T06:41:50;101839.69;;;23.73;52.48
58686;BME280;44465;53.206;-6.106;2023-08-17T06:44:16;101842.53;;;23.70;52.54
58686;BME280;44465;53.206;-6.106;2023-08-17T06:46:41;101845.06;;;23.73;52.37
58686;BME280;44465;53.206;-6.106;2023-08-17T06:49:07;101842.38;;;23.73;52.32
58686;BME280;44465;53.206;-6.106;2023-08-17T06:51:34;101846.88;;;23.73;52.40
58686;BME280;44465;53.206;-6.106;2023-08-17T06:53:59;101842.53;;;23.70;52.40
58686;BME280;44465;53.206;-6.106;2023-08-17T06:56:25;101839.06;;;23.68;52.88
58686;BME280;44465;53.206;-6.106;2023-08-17T06:58:50;101855.00;;;23.71;52.66
58686;BME280;44465;53.206;-6.106;2023-08-17T07:01:16;101853.31;;;23.70;52.60
58686;BME280;44465;53.206;-6.106;2023-08-17T07:03:41;101856.94;;;23.69;52.48
58686;BME280;44465;53.206;-6.106;2023-08-17T07:06:08;101846.19;;;23.69;52.43
58686;BME280;44465;53.206;-6.106;2023-08-17T07:08:34;101839.91;;;23.68;52.43
58686;BME280;44465;53.206;-6.106;2023-08-17T07:10:59;101820.69;;;23.59;52.50
58686;BME280;44465;53.206;-6.106;2023-08-17T07:13:24;101824.94;;;23.63;52.45
58686;BME280;44465;53.206;-6.106;2023-08-17T07:15:50;101840.78;;;23.69;52.40
58686;BME280;44465;53.206;-6.106;2023-08-17T07:18:15;101831.94;;;23.67;52.54
58686;BME280;44465;53.206;-6.106;2023-08-17T07:20:41;101831.78;;;23.70;52.58
58686;BME280;44465;53.206;-6.106;2023-08-17T07:23:06;101830.03;;;23.69;52.60
58686;BME280;44465;53.206;-6.106;2023-08-17T07:25:32;101819.28;;;23.69;52.70
58686;BME280;44465;53.206;-6.106;2023-08-17T07:27:58;101821.03;;;23.70;52.40
58686;BME280;44465;53.206;-6.106;2023-08-17T07:30:23;101804.25;;;23.65;52.58
58686;BME280;44465;53.206;-6.106;2023-08-17T07:32:49;101817.38;;;23.71;52.77
58686;BME280;44465;53.206;-6.106;2023-08-17T07:35:15;101819.19;;;23.70;52.75
58686;BME280;44465;53.206;-6.106;2023-08-17T07:37:40;101805.03;;;23.67;52.47
58686;BME280;44465;53.206;-6.106;2023-08-17T07:40:06;101811.97;;;23.71;52.60
58686;BME280;44465;53.206;-6.106;2023-08-17T07:42:33;101800.28;;;23.72;52.52
58686;BME280;44465;53.206;-6.106;2023-08-17T07:44:58;101806.16;;;23.80;52.91
58686;BME280;44465;53.206;-6.106;2023-08-17T07:47:23;101805.28;;;23.80;52.53
58686;BME280;44465;53.206;-6.106;2023-08-17T07:49:49;101792.22;;;23.72;52.86
58686;BME280;44465;53.206;-6.106;2023-08-17T07:52:14;101812.63;;;23.76;53.13
58686;BME280;44465;53.206;-6.106;2023-08-17T07:54:41;101802.19;;;23.70;53.46
58686;BME280;44465;53.206;-6.106;2023-08-17T07:57:06;101790.66;;;23.68;53.32
58686;BME280;44465;53.206;-6.106;2023-08-17T07:59:32;101801.53;;;23.82;53.91
58686;BME280;44465;53.206;-6.106;2023-08-17T08:01:57;101793.41;;;23.84;54.13
58686;BME280;44465;53.206;-6.106;2023-08-17T08:04:23;101799.19;;;23.94;54.17
58686;BME280;44465;53.206;-6.106;2023-08-17T08:06:48;101800.31;;;23.90;54.05
58686;BME280;44465;53.206;-6.106;2023-08-17T08:09:13;101787.94;;;23.85;54.12
58686;BME280;44465;53.206;-6.106;2023-08-17T08:11:39;101783.66;;;23.81;54.28
58686;BME280;44465;53.206;-6.106;2023-08-17T08:14:04;101790.41;;;23.90;54.44
58686;BME280;44465;53.206;-6.106;2023-08-17T08:16:30;101793.09;;;23.90;54.24
58686;BME280;44465;53.206;-6.106;2023-08-17T08:18:56;101785.25;;;23.85;54.35
58686;BME280;44465;53.206;-6.106;2023-08-17T08:21:22;101793.19;;;23.89;54.40
58686;BME280;44465;53.206;-6.106;2023-08-17T08:23:47;101794.91;;;23.90;54.16
58686;BME280;44465;53.206;-6.106;2023-08-17T08:26:12;101791.44;;;23.88;54.31
58686;BME280;44465;53.206;-6.106;2023-08-17T08:28:39;101793.88;;;23.92;54.35
58686;BME280;44465;53.206;-6.106;2023-08-17T08:31:04;101793.97;;;23.91;54.51
58686;BME280;44465;53.206;-6.106;2023-08-17T08:33:30;101787.63;;;23.92;54.41
58686;BME280;44465;53.206;-6.106;2023-08-17T08:35:56;101787.63;;;23.92;54.38
58686;BME280;44465;53.206;-6.106;2023-08-17T08:38:21;101793.88;;;23.92;54.25
58686;BME280;44465;53.206;-6.106;2023-08-17T08:40:47;101792.16;;;23.91;54.22
58686;BME280;44465;53.206;-6.106;2023-08-17T08:43:14;101791.28;;;23.91;54.29
58686;BME280;44465;53.206;-6.106;2023-08-17T08:45:41;101794.91;;;23.90;54.09
58686;BME280;44465;53.206;-6.106;2023-08-17T08:48:08;101787.84;;;23.87;54.37
58686;BME280;44465;53.206;-6.106;2023-08-17T08:50:36;101787.94;;;23.85;54.33
58686;BME280;44465;53.206;-6.106;2023-08-17T08:53:03;101792.16;;;23.91;54.06
58686;BME280;44465;53.206;-6.106;2023-08-17T08:55:37;101797.53;;;23.91;54.19
58686;BME280;44465;53.206;-6.106;2023-08-17T08:58:04;101800.13;;;23.93;54.23
58686;BME280;44465;53.206;-6.106;2023-08-17T09:00:30;101790.50;;;23.89;54.32
58686;BME280;44465;53.206;-6.106;2023-08-17T09:02:57;101791.09;;;23.94;54.16
58686;BME280;44465;53.206;-6.106;2023-08-17T09:05:23;101777.91;;;23.89;53.97
58686;BME280;44465;53.206;-6.106;2023-08-17T09:07:49;101783.28;;;23.89;54.32
58686;BME280;44465;53.206;-6.106;2023-08-17T09:10:15;101780.44;;;23.92;53.98
58686;BME280;44465;53.206;-6.106;2023-08-17T09:12:45;101776.78;;;23.93;53.98
58686;BME280;44465;53.206;-6.106;2023-08-17T09:15:11;101784.88;;;23.93;54.16
58686;BME280;44465;53.206;-6.106;2023-08-17T09:17:37;101777.75;;;23.92;54.12
58686;BME280;44465;53.206;-6.106;2023-08-17T09:20:03;101768.88;;;23.90;53.85
58686;BME280;44465;53.206;-6.106;2023-08-17T09:22:41;101775.84;;;23.94;53.87
58686;BME280;44465;53.206;-6.106;2023-08-17T09:25:07;101771.47;;;23.92;54.34
58686;BME280;44465;53.206;-6.106;2023-08-17T09:27:33;101780.34;;;23.94;54.23
58686;BME280;44465;53.206;-6.106;2023-08-17T09:30:07;101765.34;;;23.90;54.00
58686;BME280;44465;53.206;-6.106;2023-08-17T09:32:34;101773.22;;;23.93;54.24
58686;BME280;44465;53.206;-6.106;2023-08-17T09:35:04;101769.75;;;23.91;54.00
58686;BME280;44465;53.206;-6.106;2023-08-17T09:37:31;101765.34;;;23.90;53.99
58686;BME280;44465;53.206;-6.106;2023-08-17T09:39:57;101765.16;;;23.93;54.22
58686;BME280;44465;53.206;-6.106;2023-08-17T09:42:22;101754.56;;;23.90;54.23
58686;BME280;44465;53.206;-6.106;2023-08-17T09:44:49;101763.34;;;23.93;53.88
58686;BME280;44465;53.206;-6.106;2023-08-17T09:47:18;101738.75;;;23.83;54.30
58686;BME280;44465;53.206;-6.106;2023-08-17T09:49:52;101747.44;;;23.89;54.12
58686;BME280;44465;53.206;-6.106;2023-08-17T09:52:23;101751.69;;;23.93;54.04
58686;BME280;44465;53.206;-6.106;2023-08-17T09:54:49;101753.41;;;23.95;54.03
58686;BME280;44465;53.206;-6.106;2023-08-17T09:57:16;101745.34;;;23.95;54.17
58686;BME280;44465;53.206;-6.106;2023-08-17T09:59:42;101737.50;;;23.91;54.09
58686;BME280;44465;53.206;-6.106;2023-08-17T10:02:17;101749.84;;;23.95;53.81
58686;BME280;44465;53.206;-6.106;2023-08-17T10:04:49;101740.94;;;23.93;53.76
58686;BME280;44465;53.206;-6.106;2023-08-17T10:07:18;101749.84;;;23.95;54.03
58686;BME280;44465;53.206;-6.106;2023-08-17T10:09:47;101750.53;;;23.98;53.91
58686;BME280;44465;53.206;-6.106;2023-08-17T10:12:16;101749.69;;;23.98;53.99
58686;BME280;44465;53.206;-6.106;2023-08-17T10:14:55;101746.03;;;23.99;53.93
58686;BME280;44465;53.206;-6.106;2023-08-17T10:17:26;101737.88;;;24.00;53.80
58686;BME280;44465;53.206;-6.106;2023-08-17T10:19:54;101742.41;;;24.00;53.75
58686;BME280;44465;53.206;-6.106;2023-08-17T10:22:36;101720.31;;;23.93;53.71
58686;BME280;44465;53.206;-6.106;2023-08-17T10:25:05;101738.78;;;24.01;53.95
58686;BME280;44465;53.206;-6.106;2023-08-17T10:27:32;101725.22;;;24.03;53.88
58686;BME280;44465;53.206;-6.106;2023-08-17T10:29:58;101736.84;;;24.03;54.05
58686;BME280;44465;53.206;-6.106;2023-08-17T10:32:25;101733.19;;;24.04;53.93
58686;BME280;44465;53.206;-6.106;2023-08-17T10:34:51;101720.00;;;23.99;53.86
58686;BME280;44465;53.206;-6.106;2023-08-17T10:37:19;101728.00;;;24.01;53.88
58686;BME280;44465;53.206;-6.106;2023-08-17T10:39:47;101727.81;;;24.04;54.16
58686;BME280;44465;53.206;-6.106;2023-08-17T10:42:13;101733.69;;;23.95;54.01
58686;BME280;44465;53.206;-6.106;2023-08-17T10:47:24;101726.41;;;23.97;53.76
58686;BME280;44465;53.206;-6.106;2023-08-17T10:50:36;101717.50;;;23.96;54.24
58686;BME280;44465;53.206;-6.106;2023-08-17T10:52:37;101722.63;;;24.01;53.99
58686;BME280;44465;53.206;-6.106;2023-08-17T10:55:08;101724.34;;;24.02;54.17
58686;BME280;44465;53.206;-6.106;2023-08-17T11:02:37;101714.31;;;24.06;53.93
58686;BME280;44465;53.206;-6.106;2023-08-17T11:05:03;101703.84;;;23.99;53.70
58686;BME280;44465;53.206;-6.106;2023-08-17T11:07:39;101706.47;;;24.01;53.80
58686;BME280;44465;53.206;-6.106;2023-08-17T11:12:53;101707.25;;;24.03;53.76
58686;BME280;44465;53.206;-6.106;2023-08-17T11:15:23;101712.47;;;24.06;53.79
58686;BME280;44465;53.206;-6.106;2023-08-17T11:17:49;101702.81;;;24.02;53.83
58686;BME280;44465;53.206;-6.106;2023-08-17T11:20:14;101709.78;;;24.06;54.07
58686;BME280;44465;53.206;-6.106;2023-08-17T11:22:39;101689.38;;;24.02;53.72
58686;BME280;44465;53.206;-6.106;2023-08-17T11:25:05;101693.63;;;24.06;53.89
58686;BME280;44465;53.206;-6.106;2023-08-17T11:27:31;101695.38;;;24.07;53.69
58686;BME280;44465;53.206;-6.106;2023-08-17T11:29:57;101695.53;;;24.04;54.06
58686;BME280;44465;53.206;-6.106;2023-08-17T11:32:22;101694.69;;;24.04;53.97
58686;BME280;44465;53.206;-6.106;2023-08-17T11:34:48;101697.44;;;24.02;53.89
58686;BME280;44465;53.206;-6.106;2023-08-17T11:37:16;101702.59;;;24.07;53.99
58686;BME280;44465;53.206;-6.106;2023-08-17T11:39:41;101707.44;;;24.00;53.94
58686;BME280;44465;53.206;-6.106;2023-08-17T11:42:07;101691.03;;;24.05;54.08
58686;BME280;44465;53.206;-6.106;2023-08-17T11:44:33;101692.69;;;24.07;53.95
58686;BME280;44465;53.206;-6.106;2023-08-17T11:46:59;101696.22;;;24.08;54.07
58686;BME280;44465;53.206;-6.106;2023-08-17T11:49:24;101690.16;;;24.04;54.21
58686;BME280;44465;53.206;-6.106;2023-08-17T11:51:51;101702.41;;;24.10;54.18
58686;BME280;44465;53.206;-6.106;2023-08-17T11:54:17;101703.19;;;24.12;54.03
58686;BME280;44465;53.206;-6.106;2023-08-17T11:56:42;101674.09;;;24.03;53.88
58686;BME280;44465;53.206;-6.106;2023-08-17T11:59:09;101683.75;;;24.07;53.85
58686;BME280;44465;53.206;-6.106;2023-08-17T12:01:39;101688.88;;;24.11;53.90
58686;BME280;44465;53.206;-6.106;2023-08-17T12:04:06;101695.91;;;24.14;53.83
58686;BME280;44465;53.206;-6.106;2023-08-17T12:06:31;101679.94;;;24.11;53.75
58686;BME280;44465;53.206;-6.106;2023-08-17T12:08:57;101686.81;;;24.16;53.33
58686;BME280;44465;53.206;-6.106;2023-08-17T12:11:26;101683.31;;;24.14;53.92
58686;BME280;44465;53.206;-6.106;2023-08-17T12:13:52;101683.41;;;24.13;53.85
58686;BME280;44465;53.206;-6.106;2023-08-17T12:16:19;101668.31;;;24.10;53.90
58686;BME280;44465;53.206;-6.106;2023-08-17T12:18:48;101675.09;;;24.17;53.94
58686;BME280;44465;53.206;-6.106;2023-08-17T12:21:14;101676.94;;;24.17;53.85
58686;BME280;44465;53.206;-6.106;2023-08-17T12:23:41;101676.81;;;24.19;53.77
58686;BME280;44465;53.206;-6.106;2023-08-17T12:26:07;101673.19;;;24.20;54.10
58686;BME280;44465;53.206;-6.106;2023-08-17T12:28:32;101672.13;;;24.22;53.94
58686;BME280;44465;53.206;-6.106;2023-08-17T12:30:59;101669.53;;;24.21;53.77
58686;BME280;44465;53.206;-6.106;2023-08-17T12:33:25;101659.63;;;24.21;53.95
58686;BME280;44465;53.206;-6.106;2023-08-17T12:35:51;101668.59;;;24.22;54.16
58686;BME280;44465;53.206;-6.106;2023-08-17T12:38:16;101662.41;;;24.20;53.77
58686;BME280;44465;53.206;-6.106;2023-08-17T12:40:42;101672.84;;;24.26;53.67
58686;BME280;44465;53.206;-6.106;2023-08-17T12:43:07;101663.22;;;24.22;53.98
58686;BME280;44465;53.206;-6.106;2023-08-17T12:45:32;101655.03;;;24.23;53.68
58686;BME280;44465;53.206;-6.106;2023-08-17T12:47:59;101659.38;;;24.26;54.21